Time;durP1;ratioP1;P1;durP2;ratioP2;P2;SDS_P1;SDS_P2;PMS_P1;PMS_P2;Temp;Humidity;BMP_temperature;BMP_pressure;BME280_temperature;BME280_humidity;BME280_pressure;Samples;Min_cycle;Max_cycle;Signal;HPM_P1;HPM_P2
2022/09/06 00:00:41;;;;;;;;;;;26.70;43.10;25.30;101235.00;;;;5099381;28;19915;-68
2022/09/06 00:03:27;;;;;;;;;;;26.80;43.10;25.30;101240.00;;;;5092878;28;20017;-67
2022/09/06 00:06:15;;;;;;;;;;;26.80;43.10;25.30;101230.00;;;;5097957;28;20266;-67
2022/09/06 00:09:01;;;;;;;;;;;26.80;43.10;25.30;101235.00;;;;5096264;28;19964;-67
2022/09/06 00:11:47;;;;;;;;;;;26.80;43.10;25.30;101233.00;;;;5086171;28;20369;-67
2022/09/06 00:14:33;;;;;;;;;;;26.80;43.10;25.30;101228.00;;;;5099987;28;19937;-67
2022/09/06 00:17:19;;;;;;;;;;;26.80;43.10;25.30;101223.00;;;;5099469;28;19911;-67
2022/09/06 00:20:07;;;;;;;;;;;26.80;43.20;25.30;101218.00;;;;5105228;28;19920;-67
2022/09/06 00:23:01;;;;;;;;;;;26.80;43.20;25.30;101214.00;;;;5085581;28;20265;-67
2022/09/06 00:25:47;;;;;;;;;;;26.80;43.20;25.30;101212.00;;;;5097499;28;19912;-67
2022/09/06 00:28:33;;;;;;;;;;;26.80;43.10;25.30;101208.00;;;;5094296;28;19911;-67
2022/09/06 00:31:21;;;;;;;;;;;26.80;43.20;25.30;101203.00;;;;5095357;28;19924;-68
2022/09/06 00:34:07;;;;;;;;;;;26.80;43.20;25.30;101195.00;;;;5102286;28;20007;-67
2022/09/06 00:36:53;;;;;;;;;;;26.80;43.20;25.30;101191.00;;;;5097022;28;19923;-67
2022/09/06 00:39:39;;;;;;;;;;;26.80;43.20;25.30;101192.00;;;;5110363;28;19916;-67
2022/09/06 00:42:25;;;;;;;;;;;26.80;43.20;25.30;101193.00;;;;5092435;28;19918;-67
2022/09/06 00:45:11;;;;;;;;;;;26.80;43.20;25.30;101190.00;;;;5103764;28;19916;-67
2022/09/06 00:47:57;;;;;;;;;;;26.80;43.20;25.30;101180.00;;;;5082679;28;20428;-67
2022/09/06 00:50:43;;;;;;;;;;;26.80;43.20;25.30;101184.00;;;;5084090;28;19954;-67
2022/09/06 00:53:29;;;;;;;;;;;26.80;43.20;25.30;101182.00;;;;5100966;27;19927;-67
2022/09/06 00:56:15;;;;;;;;;;;26.80;43.20;25.30;101186.00;;;;5084981;27;20376;-67
2022/09/06 00:59:01;;;;;;;;;;;26.80;43.20;25.30;101184.00;;;;5096567;27;19912;-68
2022/09/06 01:01:47;;;;;;;;;;;26.80;43.20;25.30;101188.00;;;;5089051;27;20276;-67
2022/09/06 01:04:34;;;;;;;;;;;26.80;43.90;25.30;101188.00;;;;5100602;27;19912;-67
2022/09/06 01:07:51;;;;;;;;;;;26.80;43.20;25.30;101190.00;;;;5085060;27;19919;-67
2022/09/06 01:11:00;;;;;;;;;;;26.80;43.20;25.30;101184.00;;;;5100576;27;20354;-68
2022/09/06 01:13:59;;;;;;;;;;;26.80;43.20;25.30;101185.00;;;;5089591;27;20423;-67
2022/09/06 01:16:51;;;;;;;;;;;26.70;43.20;25.30;101188.00;;;;5100885;27;20336;-67
2022/09/06 01:19:58;;;;;;;;;;;26.80;43.30;25.30;101192.00;;;;5100447;27;19919;-67
2022/09/06 01:22:55;;;;;;;;;;;26.70;43.20;25.30;101191.00;;;;5100256;27;19935;-68
2022/09/06 01:25:53;;;;;;;;;;;26.80;43.30;25.30;101190.00;;;;5098649;27;19935;-67
2022/09/06 01:28:41;;;;;;;;;;;26.80;43.30;25.30;101196.00;;;;5099490;27;19920;-67
2022/09/06 01:31:45;;;;;;;;;;;26.80;43.30;25.30;101184.00;;;;5088347;27;19935;-68
2022/09/06 01:34:35;;;;;;;;;;;26.70;43.20;25.30;101183.00;;;;5097580;27;19912;-67
2022/09/06 01:37:21;;;;;;;;;;;26.80;43.30;25.30;101181.00;;;;5108347;27;20286;-67
2022/09/06 01:40:07;;;;;;;;;;;26.80;43.30;25.30;101172.00;;;;5109124;27;20478;-67
2022/09/06 01:42:53;;;;;;;;;;;26.80;43.30;25.30;101175.00;;;;5101462;27;20018;-67
2022/09/06 01:45:53;;;;;;;;;;;26.80;43.30;25.30;101166.00;;;;5087730;27;19919;-68
2022/09/06 01:48:43;;;;;;;;;;;26.70;43.20;25.30;101169.00;;;;5081043;28;20368;-67
2022/09/06 01:51:53;;;;;;;;;;;26.80;43.30;25.30;101159.00;;;;5097334;27;19919;-67
2022/09/06 01:55:13;;;;;;;;;;;26.70;43.20;25.30;101155.00;;;;5104907;27;19911;-67
2022/09/06 01:58:07;;;;;;;;;;;26.80;43.30;25.30;101161.00;;;;5085576;28;20009;-67
2022/09/06 02:01:03;;;;;;;;;;;26.80;43.30;25.30;101158.00;;;;5092140;27;20387;-67
2022/09/06 02:04:06;;;;;;;;;;;26.80;43.30;25.30;101154.00;;;;5102007;27;19919;-68
2022/09/06 02:07:02;;;;;;;;;;;26.80;43.30;25.30;101151.00;;;;5089436;27;19911;-67
2022/09/06 02:09:52;;;;;;;;;;;26.70;43.30;25.30;101144.00;;;;5084070;28;19915;-68
2022/09/06 02:12:39;;;;;;;;;;;26.80;43.30;25.30;101146.00;;;;5087698;27;19912;-67
2022/09/06 02:15:28;;;;;;;;;;;26.80;43.30;25.30;101150.00;;;;5080402;27;20348;-67
2022/09/06 02:18:17;;;;;;;;;;;26.80;43.40;25.30;101146.00;;;;5086038;27;19922;-68
2022/09/06 02:21:03;;;;;;;;;;;26.70;43.30;25.30;101147.00;;;;5100686;27;19915;-67
2022/09/06 02:23:49;;;;;;;;;;;26.80;43.40;25.30;101157.00;;;;5080527;28;20009;-67
2022/09/06 02:26:37;;;;;;;;;;;26.80;43.30;25.30;101163.00;;;;5098404;27;19911;-67
2022/09/06 02:29:23;;;;;;;;;;;26.70;43.30;25.30;101160.00;;;;5080008;28;20324;-67
2022/09/06 02:32:20;;;;;;;;;;;26.70;43.30;25.30;101156.00;;;;5087240;27;20428;-67
2022/09/06 02:35:08;;;;;;;;;;;26.80;43.30;25.30;101152.00;;;;5084837;27;19912;-67
2022/09/06 02:37:55;;;;;;;;;;;26.80;43.40;25.30;101155.00;;;;5085923;28;19912;-67
2022/09/06 02:40:42;;;;;;;;;;;26.80;43.40;25.30;101154.00;;;;5078993;28;19915;-68
2022/09/06 02:43:28;;;;;;;;;;;26.80;43.40;25.30;101155.00;;;;5094930;28;20323;-67
2022/09/06 02:46:14;;;;;;;;;;;26.70;43.30;25.30;101162.00;;;;5099063;28;19923;-67
2022/09/06 02:49:00;;;;;;;;;;;26.80;43.40;25.30;101173.00;;;;5098875;28;20376;-67
2022/09/06 02:51:46;;;;;;;;;;;26.70;43.30;25.30;101183.00;;;;5092266;28;19920;-67
2022/09/06 02:54:32;;;;;;;;;;;26.80;43.40;25.30;101179.00;;;;5105801;27;20365;-67
2022/09/06 02:57:18;;;;;;;;;;;26.80;43.40;25.30;101183.00;;;;5104123;27;19916;-67
2022/09/06 03:00:04;;;;;;;;;;;26.70;43.30;25.30;101179.00;;;;5099338;28;20353;-67
2022/09/06 03:02:50;;;;;;;;;;;26.80;43.40;25.30;101179.00;;;;5101701;27;20415;-67
2022/09/06 03:05:36;;;;;;;;;;;26.70;43.30;25.30;101174.00;;;;5098076;27;20330;-67
2022/09/06 03:08:24;;;;;;;;;;;26.70;43.40;25.30;101164.00;;;;5090236;28;20234;-67
2022/09/06 03:11:10;;;;;;;;;;;26.80;43.60;25.30;101168.00;;;;5090746;27;19951;-67
2022/09/06 03:13:56;;;;;;;;;;;26.80;43.40;25.30;101166.00;;;;5099597;28;19920;-67
2022/09/06 03:16:42;;;;;;;;;;;26.80;43.40;25.30;101167.00;;;;5090554;28;19918;-67
2022/09/06 03:19:28;;;;;;;;;;;26.70;43.40;25.30;101156.00;;;;5099532;28;19912;-68
2022/09/06 03:22:14;;;;;;;;;;;26.70;43.40;25.30;101161.00;;;;5093201;28;20045;-67
2022/09/06 03:25:00;;;;;;;;;;;26.70;43.40;25.30;101158.00;;;;5090595;27;19942;-67
2022/09/06 03:27:46;;;;;;;;;;;26.80;43.50;25.30;101154.00;;;;5094167;28;19942;-67
2022/09/06 03:30:32;;;;;;;;;;;26.80;43.50;25.30;101161.00;;;;5093595;27;20454;-67
2022/09/06 03:33:18;;;;;;;;;;;26.80;43.50;25.30;101157.00;;;;5100951;27;19911;-67
2022/09/06 03:36:04;;;;;;;;;;;26.70;43.40;25.30;101156.00;;;;5082507;28;19920;-67
2022/09/06 03:38:52;;;;;;;;;;;26.80;43.50;25.30;101162.00;;;;5096952;28;19911;-67
2022/09/06 03:41:38;;;;;;;;;;;26.70;43.40;25.30;101167.00;;;;5096994;28;19958;-67
2022/09/06 03:44:24;;;;;;;;;;;26.70;43.40;25.30;101165.00;;;;5092121;28;19916;-67
2022/09/06 03:47:10;;;;;;;;;;;26.70;43.40;25.30;101170.00;;;;5093884;28;19916;-67
2022/09/06 03:49:56;;;;;;;;;;;26.70;43.40;25.30;101170.00;;;;5096054;28;19923;-68
2022/09/06 03:52:42;;;;;;;;;;;26.80;43.50;25.30;101165.00;;;;5094831;28;19912;-67
2022/09/06 03:55:28;;;;;;;;;;;26.80;43.50;25.30;101174.00;;;;5093119;28;19912;-68
2022/09/06 03:58:15;;;;;;;;;;;26.70;43.50;25.30;101171.00;;;;5086713;28;20415;-68
2022/09/06 04:01:08;;;;;;;;;;;26.80;43.60;25.30;101164.00;;;;5100646;28;20002;-67
2022/09/06 04:03:54;;;;;;;;;;;26.80;43.60;25.30;101163.00;;;;5094665;28;20375;-67
2022/09/06 04:06:40;;;;;;;;;;;26.80;43.60;25.30;101156.00;;;;5100193;28;19915;-67
2022/09/06 04:09:26;;;;;;;;;;;26.70;43.50;25.30;101148.00;;;;5096058;28;20122;-68
2022/09/06 04:12:12;;;;;;;;;;;26.70;43.50;25.30;101156.00;;;;5100405;28;20470;-67
2022/09/06 04:14:58;;;;;;;;;;;26.70;43.50;25.30;101161.00;;;;5098246;28;19912;-67
2022/09/06 04:17:45;;;;;;;;;;;26.80;43.60;25.30;101166.00;;;;5093661;28;19911;-67
2022/09/06 04:20:31;;;;;;;;;;;26.70;43.50;25.30;101163.00;;;;5108363;28;19918;-67
2022/09/06 04:23:17;;;;;;;;;;;26.80;43.60;25.30;101158.00;;;;5102110;27;19938;-68
2022/09/06 04:26:03;;;;;;;;;;;26.70;43.60;25.30;101158.00;;;;5104349;27;19918;-67
2022/09/06 04:28:49;;;;;;;;;;;26.70;43.50;25.30;101158.00;;;;5091271;27;19927;-67
2022/09/06 04:31:35;;;;;;;;;;;26.70;43.50;25.30;101162.00;;;;5097423;27;19916;-67
2022/09/06 04:34:21;;;;;;;;;;;26.70;43.50;25.30;101157.00;;;;5107293;27;19937;-67
2022/09/06 04:37:07;;;;;;;;;;;26.80;43.60;25.30;101165.00;;;;5104822;27;19942;-67
2022/09/06 04:39:53;;;;;;;;;;;26.70;43.50;25.30;101152.00;;;;5103540;27;20022;-67
2022/09/06 04:42:39;;;;;;;;;;;26.80;43.70;25.30;101157.00;;;;5105864;27;20357;-68
2022/09/06 04:45:25;;;;;;;;;;;26.70;43.60;25.30;101155.00;;;;5100713;27;20279;-68
2022/09/06 04:48:11;;;;;;;;;;;26.70;43.60;25.30;101158.00;;;;5105056;27;20293;-67
2022/09/06 04:50:57;;;;;;;;;;;26.70;43.60;25.30;101164.00;;;;5099067;27;20461;-67
2022/09/06 04:53:43;;;;;;;;;;;26.70;43.60;25.30;101170.00;;;;5089013;28;19966;-67
2022/09/06 04:56:29;;;;;;;;;;;26.70;44.30;25.30;101186.00;;;;5101979;27;19916;-67
2022/09/06 04:59:15;;;;;;;;;;;26.70;43.60;25.30;101185.00;;;;5099690;27;19912;-67
2022/09/06 05:02:01;;;;;;;;;;;26.70;43.70;25.30;101176.00;;;;5101685;28;19912;-68
2022/09/06 05:04:47;;;;;;;;;;;26.70;43.70;25.30;101164.00;;;;5087477;28;19915;-67
2022/09/06 05:07:33;;;;;;;;;;;26.70;43.70;25.30;101179.00;;;;5102140;27;20373;-67
2022/09/06 05:10:19;;;;;;;;;;;26.70;43.70;25.30;101192.00;;;;5103207;27;20066;-67
2022/09/06 05:13:05;;;;;;;;;;;26.70;43.60;25.30;101196.00;;;;5095502;28;19951;-67
2022/09/06 05:15:51;;;;;;;;;;;26.70;43.70;25.30;101198.00;;;;5108558;27;19916;-68
2022/09/06 05:18:37;;;;;;;;;;;26.70;43.70;25.30;101185.00;;;;5100064;27;19924;-69
2022/09/06 05:21:23;;;;;;;;;;;26.70;43.70;25.30;101199.00;;;;5097621;27;20418;-67
2022/09/06 05:24:09;;;;;;;;;;;26.70;43.70;25.30;101207.00;;;;5105551;27;19920;-68
2022/09/06 05:26:55;;;;;;;;;;;26.70;43.70;25.30;101209.00;;;;5096915;27;20362;-67
2022/09/06 05:29:41;;;;;;;;;;;26.70;43.70;25.30;101231.00;;;;5101892;27;19923;-67
2022/09/06 05:32:27;;;;;;;;;;;26.70;43.70;25.30;101239.00;;;;5097926;27;19911;-67
2022/09/06 05:35:13;;;;;;;;;;;26.70;43.80;25.30;101234.00;;;;5099411;27;20223;-67
2022/09/06 05:37:59;;;;;;;;;;;26.70;43.80;25.30;101249.00;;;;5088841;28;19968;-68
2022/09/06 05:40:45;;;;;;;;;;;26.70;43.80;25.30;101237.00;;;;5099714;27;20504;-67
2022/09/06 05:43:31;;;;;;;;;;;26.70;43.80;25.30;101225.00;;;;5098251;27;19918;-67
2022/09/06 05:46:17;;;;;;;;;;;26.70;43.80;25.30;101230.00;;;;5097816;27;20299;-67
2022/09/06 05:49:06;;;;;;;;;;;26.70;43.80;25.30;101224.00;;;;5101694;27;19935;-67
2022/09/06 05:51:52;;;;;;;;;;;26.60;43.70;25.30;101216.00;;;;5096477;27;20208;-67
2022/09/06 05:54:38;;;;;;;;;;;26.70;44.50;25.30;101215.00;;;;5107668;27;19915;-67
2022/09/06 05:57:24;;;;;;;;;;;26.60;43.90;25.30;101223.00;;;;5106918;27;19915;-67
2022/09/06 06:00:11;;;;;;;;;;;26.70;43.90;25.30;101239.00;;;;5102422;27;19916;-67
2022/09/06 06:02:57;;;;;;;;;;;26.70;44.00;25.30;101241.00;;;;5094481;28;19943;-68
2022/09/06 06:05:46;;;;;;;;;;;26.60;44.00;25.30;101226.00;;;;5096992;27;19937;-67
2022/09/06 06:08:33;;;;;;;;;;;26.70;44.10;25.30;101220.00;;;;5085759;27;20272;-67
2022/09/06 06:11:19;;;;;;;;;;;26.60;44.00;25.30;101220.00;;;;5096936;27;19916;-67
2022/09/06 06:14:05;;;;;;;;;;;26.60;44.00;25.30;101207.00;;;;5099255;27;20365;-67
2022/09/06 06:16:51;;;;;;;;;;;26.60;44.00;25.30;101201.00;;;;5101506;27;19922;-67
2022/09/06 06:19:37;;;;;;;;;;;26.60;44.00;25.30;101199.00;;;;5092471;27;20452;-67
2022/09/06 06:22:23;;;;;;;;;;;26.60;44.00;25.30;101209.00;;;;5112500;27;19918;-67
2022/09/06 06:25:09;;;;;;;;;;;26.60;44.00;25.30;101212.00;;;;5102026;27;20439;-67
2022/09/06 06:27:55;;;;;;;;;;;26.60;44.00;25.30;101207.00;;;;5095789;28;20187;-67
2022/09/06 06:30:41;;;;;;;;;;;26.60;44.00;25.30;101199.00;;;;5108377;27;19923;-67
2022/09/06 06:33:27;;;;;;;;;;;26.60;44.00;25.30;101224.00;;;;5094244;27;19920;-67
2022/09/06 06:36:13;;;;;;;;;;;26.60;44.00;25.20;101234.00;;;;5103919;27;19965;-67
2022/09/06 06:38:59;;;;;;;;;;;26.60;44.10;25.20;101227.00;;;;5099182;28;19915;-67
2022/09/06 06:41:46;;;;;;;;;;;26.60;44.10;25.20;101215.00;;;;5097896;27;19912;-68
2022/09/06 06:44:32;;;;;;;;;;;26.60;44.10;25.20;101219.00;;;;5109146;27;19911;-67
2022/09/06 06:47:19;;;;;;;;;;;26.60;44.20;25.30;101229.00;;;;5104299;27;19916;-67
2022/09/06 06:50:05;;;;;;;;;;;26.60;44.10;25.20;101224.00;;;;5101971;27;19915;-67
2022/09/06 06:52:52;;;;;;;;;;;26.60;44.10;25.20;101219.00;;;;5096857;28;19915;-67
2022/09/06 06:55:38;;;;;;;;;;;26.60;44.20;25.20;101221.00;;;;5097620;27;20007;-67
2022/09/06 06:58:24;;;;;;;;;;;26.60;44.20;25.30;101210.00;;;;5102515;27;20019;-67
2022/09/06 07:01:11;;;;;;;;;;;26.60;44.20;25.20;101219.00;;;;5101385;27;20374;-67
2022/09/06 07:03:57;;;;;;;;;;;26.60;44.30;25.20;101209.00;;;;5105268;27;20272;-67
2022/09/06 07:06:47;;;;;;;;;;;26.60;44.40;25.20;101205.00;;;;5079234;28;20365;-67
2022/09/06 07:09:33;;;;;;;;;;;26.60;44.40;25.20;101201.00;;;;5097971;27;19968;-67
2022/09/06 07:12:19;;;;;;;;;;;26.60;44.40;25.20;101216.00;;;;5107527;27;19919;-67
2022/09/06 07:15:06;;;;;;;;;;;26.60;44.40;25.20;101205.00;;;;5099037;28;20010;-67
2022/09/06 07:17:55;;;;;;;;;;;26.60;44.40;25.20;101204.00;;;;5093926;28;19955;-67
2022/09/06 07:20:41;;;;;;;;;;;26.60;44.40;25.20;101197.00;;;;5078232;27;19916;-67
2022/09/06 07:23:27;;;;;;;;;;;26.60;44.40;25.20;101200.00;;;;5093461;28;19965;-67
2022/09/06 07:26:17;;;;;;;;;;;26.60;44.50;25.20;101210.00;;;;5095150;28;19916;-67
2022/09/06 07:29:03;;;;;;;;;;;26.60;44.50;25.20;101216.00;;;;5097171;27;19922;-67
2022/09/06 07:31:51;;;;;;;;;;;26.60;44.50;25.20;101209.00;;;;5085897;28;20279;-67
2022/09/06 07:34:38;;;;;;;;;;;26.60;44.60;25.20;101208.00;;;;5092594;28;19920;-67
2022/09/06 07:37:24;;;;;;;;;;;26.60;44.60;25.20;101210.00;;;;5099207;28;19915;-67
2022/09/06 07:40:10;;;;;;;;;;;26.60;44.60;25.20;101203.00;;;;5096748;28;19916;-67
2022/09/06 07:42:57;;;;;;;;;;;26.60;44.60;25.20;101198.00;;;;5094506;28;20027;-67
2022/09/06 07:45:43;;;;;;;;;;;26.60;44.70;25.20;101200.00;;;;5098693;28;19994;-67
2022/09/06 07:48:30;;;;;;;;;;;26.60;44.60;25.20;101206.00;;;;5099826;28;19912;-68
2022/09/06 07:51:19;;;;;;;;;;;26.60;44.60;25.20;101206.00;;;;5097956;28;19916;-68
2022/09/06 07:54:06;;;;;;;;;;;26.60;44.60;25.20;101209.00;;;;5095478;28;20026;-68
2022/09/06 07:56:52;;;;;;;;;;;26.60;44.60;25.20;101211.00;;;;5082602;28;20384;-67
2022/09/06 07:59:38;;;;;;;;;;;26.60;44.60;25.20;101205.00;;;;5102916;28;19916;-67
2022/09/06 08:02:24;;;;;;;;;;;26.60;44.60;25.20;101215.00;;;;5095780;28;19912;-67
2022/09/06 08:05:10;;;;;;;;;;;26.60;44.70;25.20;101223.00;;;;5086605;28;19933;-67
2022/09/06 08:07:56;;;;;;;;;;;26.60;44.80;25.20;101217.00;;;;5106498;28;20314;-67
2022/09/06 08:10:42;;;;;;;;;;;26.60;44.70;25.20;101214.00;;;;5100653;28;19920;-67
2022/09/06 08:13:28;;;;;;;;;;;26.60;44.80;25.20;101207.00;;;;5097363;28;19916;-67
2022/09/06 08:16:15;;;;;;;;;;;26.60;44.80;25.20;101210.00;;;;5105719;27;19915;-67
2022/09/06 08:19:03;;;;;;;;;;;26.60;44.80;25.20;101208.00;;;;5103679;27;20356;-67
2022/09/06 08:21:49;;;;;;;;;;;26.60;44.80;25.20;101209.00;;;;5084104;28;19916;-67
2022/09/06 08:24:35;;;;;;;;;;;26.60;44.80;25.20;101207.00;;;;5082828;27;19911;-67
2022/09/06 08:27:21;;;;;;;;;;;26.60;44.80;25.20;101213.00;;;;5107245;27;19993;-67
2022/09/06 08:30:08;;;;;;;;;;;26.60;44.80;25.20;101205.00;;;;5102817;27;20320;-67
2022/09/06 08:32:55;;;;;;;;;;;26.60;45.20;25.20;101202.00;;;;5105469;27;20010;-68
2022/09/06 08:35:41;;;;;;;;;;;26.60;44.80;25.20;101210.00;;;;5097213;27;19931;-67
2022/09/06 08:38:27;;;;;;;;;;;26.60;44.80;25.20;101215.00;;;;5104959;27;19911;-68
2022/09/06 08:41:13;;;;;;;;;;;26.60;44.70;25.20;101208.00;;;;5105117;27;19954;-67
2022/09/06 08:44:01;;;;;;;;;;;26.60;44.70;25.20;101211.00;;;;5107641;27;19923;-67
2022/09/06 08:46:56;;;;;;;;;;;26.60;44.70;25.20;101211.00;;;;5084763;28;20341;-67
2022/09/06 08:49:51;;;;;;;;;;;26.60;44.70;25.20;101210.00;;;;5083751;28;20364;-68
2022/09/06 08:53:02;;;;;;;;;;;26.70;44.70;25.20;101209.00;;;;5108666;27;19916;-67
2022/09/06 08:56:04;;;;;;;;;;;26.60;44.70;25.20;101209.00;;;;5103231;27;19915;-67
2022/09/06 08:59:07;;;;;;;;;;;26.60;44.70;25.20;101212.00;;;;5084713;28;19912;-67
2022/09/06 09:02:09;;;;;;;;;;;26.60;44.70;25.20;101214.00;;;;5113999;27;19995;-67
2022/09/06 09:04:58;;;;;;;;;;;26.60;44.70;25.20;101222.00;;;;5101144;28;19915;-68
2022/09/06 09:08:22;;;;;;;;;;;26.60;44.70;25.20;101215.00;;;;5098581;28;19912;-67
2022/09/06 09:11:11;;;;;;;;;;;26.60;44.70;25.20;101214.00;;;;5105253;27;20010;-67
2022/09/06 09:14:01;;;;;;;;;;;26.60;44.70;25.20;101208.00;;;;5102808;27;19916;-67
2022/09/06 09:16:51;;;;;;;;;;;26.60;44.70;25.20;101210.00;;;;5082437;28;20436;-67
2022/09/06 09:19:37;;;;;;;;;;;26.60;44.70;25.20;101205.00;;;;5098677;27;20274;-67
2022/09/06 09:22:24;;;;;;;;;;;26.60;44.70;25.20;101199.00;;;;5091275;27;19985;-67
2022/09/06 09:25:16;;;;;;;;;;;26.60;44.60;25.20;101197.00;;;;5104326;27;19916;-67
2022/09/06 09:28:13;;;;;;;;;;;26.60;44.60;25.20;101202.00;;;;5083897;27;19924;-67
2022/09/06 09:30:59;;;;;;;;;;;26.60;44.60;25.20;101201.00;;;;5083970;27;19998;-67
2022/09/06 09:33:45;;;;;;;;;;;26.60;44.60;25.20;101199.00;;;;5094382;28;19912;-67
2022/09/06 09:36:31;;;;;;;;;;;26.60;44.60;25.20;101187.00;;;;5102065;27;19947;-67
2022/09/06 09:39:17;;;;;;;;;;;26.60;44.50;25.20;101186.00;;;;5089482;28;20276;-68
2022/09/06 09:42:03;;;;;;;;;;;26.60;44.60;25.20;101188.00;;;;5104362;27;20276;-67
2022/09/06 09:44:49;;;;;;;;;;;26.60;44.60;25.20;101185.00;;;;5084207;28;19922;-67
2022/09/06 09:47:35;;;;;;;;;;;26.60;44.50;25.20;101182.00;;;;5099151;27;19912;-67
2022/09/06 09:50:29;;;;;;;;;;;26.60;44.50;25.20;101177.00;;;;5101254;27;20360;-67
2022/09/06 09:53:17;;;;;;;;;;;26.60;44.50;25.20;101176.00;;;;5097333;27;19916;-68
2022/09/06 09:56:04;;;;;;;;;;;26.60;44.50;25.20;101171.00;;;;5083636;28;19969;-67
2022/09/06 09:58:50;;;;;;;;;;;26.60;44.50;25.20;101171.00;;;;5065564;28;20274;-67
2022/09/06 10:01:36;;;;;;;;;;;26.60;44.50;25.20;101171.00;;;;5093477;28;19958;-67
2022/09/06 10:04:34;;;;;;;;;;;26.60;44.50;25.20;101177.00;;;;5088537;28;19969;-67
2022/09/06 10:07:23;;;;;;;;;;;26.60;45.20;25.20;101178.00;;;;5090957;28;19920;-67
2022/09/06 10:10:13;;;;;;;;;;;26.70;44.60;25.20;101174.00;;;;5095674;28;19923;-67
2022/09/06 10:13:19;;;;;;;;;;;26.70;44.60;25.20;101168.00;;;;5113512;27;19950;-68
2022/09/06 10:16:05;;;;;;;;;;;26.60;44.60;25.20;101170.00;;;;5079715;28;20447;-67
2022/09/06 10:18:51;;;;;;;;;;;26.60;44.60;25.20;101164.00;;;;5086507;28;19915;-67
2022/09/06 10:21:37;;;;;;;;;;;26.60;44.60;25.20;101170.00;;;;5101364;28;19911;-68
2022/09/06 10:24:40;;;;;;;;;;;26.60;44.60;25.20;101165.00;;;;5101225;28;19916;-67
2022/09/06 10:27:27;;;;;;;;;;;26.60;44.60;25.20;101160.00;;;;5084570;27;20006;-67
2022/09/06 10:30:14;;;;;;;;;;;26.70;44.60;25.20;101160.00;;;;5106630;27;19919;-67
2022/09/06 10:33:04;;;;;;;;;;;26.60;44.60;25.20;101154.00;;;;5088946;28;19914;-68
2022/09/06 10:35:50;;;;;;;;;;;26.70;44.60;25.20;101152.00;;;;5087373;28;19911;-67
2022/09/06 10:38:37;;;;;;;;;;;26.70;44.60;25.20;101148.00;;;;5096237;28;19934;-67
2022/09/06 10:41:41;;;;;;;;;;;26.60;44.60;25.20;101143.00;;;;5107461;27;19912;-67
2022/09/06 10:44:51;;;;;;;;;;;26.60;44.60;25.20;101133.00;;;;5103269;27;19916;-67
2022/09/06 10:47:55;;;;;;;;;;;26.60;44.60;25.20;101144.00;;;;5083824;28;19911;-68
2022/09/06 10:50:47;;;;;;;;;;;26.60;44.60;25.20;101145.00;;;;5097347;27;20124;-67
2022/09/06 10:53:49;;;;;;;;;;;26.70;44.60;25.20;101146.00;;;;5105361;27;19918;-67
2022/09/06 10:56:57;;;;;;;;;;;26.70;44.60;25.20;101150.00;;;;5101351;27;19912;-67
2022/09/06 10:59:52;;;;;;;;;;;26.60;44.50;25.20;101148.00;;;;5103719;27;19912;-67
2022/09/06 11:02:37;;;;;;;;;;;26.70;44.60;25.20;101146.00;;;;5091573;27;19915;-68
2022/09/06 11:05:29;;;;;;;;;;;26.70;44.60;25.30;101144.00;;;;5105536;27;20242;-67
2022/09/06 11:08:40;;;;;;;;;;;26.70;44.60;25.30;101140.00;;;;5088871;28;20280;-67
2022/09/06 11:11:34;;;;;;;;;;;26.70;44.60;25.30;101130.00;;;;5076553;27;20350;-68
2022/09/06 11:14:20;;;;;;;;;;;26.70;44.60;25.30;101127.00;;;;5088135;28;20376;-67
2022/09/06 11:17:18;;;;;;;;;;;26.80;44.60;25.30;101121.00;;;;5086826;27;19912;-67
2022/09/06 11:20:21;;;;;;;;;;;26.70;44.50;25.30;101132.00;;;;5106284;27;19969;-67
2022/09/06 11:23:25;;;;;;;;;;;26.80;44.60;25.30;101126.00;;;;5089035;28;19915;-67
2022/09/06 11:26:43;;;;;;;;;;;26.80;44.60;25.30;101130.00;;;;5106083;27;20453;-67
2022/09/06 11:29:29;;;;;;;;;;;26.70;44.50;25.30;101129.00;;;;5087920;28;19959;-67
2022/09/06 11:32:32;;;;;;;;;;;26.80;44.50;25.30;101135.00;;;;5081799;28;19943;-68
2022/09/06 11:35:31;;;;;;;;;;;26.80;44.50;25.30;101132.00;;;;5110040;27;19972;-67
2022/09/06 11:38:23;;;;;;;;;;;26.80;44.50;25.30;101122.00;;;;5088027;27;20431;-67
2022/09/06 11:41:14;;;;;;;;;;;26.80;44.50;25.30;101123.00;;;;5085977;28;19919;-67
2022/09/06 11:44:00;;;;;;;;;;;26.80;44.50;25.30;101121.00;;;;5087172;28;20272;-67
2022/09/06 11:46:47;;;;;;;;;;;26.80;44.50;25.30;101119.00;;;;5083501;28;19947;-68
2022/09/06 11:49:34;;;;;;;;;;;26.80;44.50;25.30;101124.00;;;;5106355;28;20069;-67
2022/09/06 11:52:54;;;;;;;;;;;26.80;44.50;25.30;101111.00;;;;5077279;28;19930;-68
2022/09/06 11:55:47;;;;;;;;;;;26.80;44.50;25.30;101113.00;;;;5095748;28;20268;-68
2022/09/06 11:58:39;;;;;;;;;;;26.80;45.20;25.30;101114.00;;;;5087251;28;19912;-68
2022/09/06 12:01:25;;;;;;;;;;;26.80;44.50;25.30;101109.00;;;;5100903;28;19926;-67
2022/09/06 12:04:11;;;;;;;;;;;26.80;44.50;25.30;101113.00;;;;5101070;28;19916;-67
2022/09/06 12:07:12;;;;;;;;;;;26.80;44.50;25.30;101104.00;;;;5104817;28;19965;-68
2022/09/06 12:10:02;;;;;;;;;;;26.90;44.50;25.30;101099.00;;;;5099021;28;19919;-67
2022/09/06 12:12:49;;;;;;;;;;;26.90;44.50;25.30;101091.00;;;;5098259;28;19911;-67
2022/09/06 12:15:44;;;;;;;;;;;26.90;44.50;25.30;101076.00;;;;5099551;28;19920;-67
2022/09/06 12:18:46;;;;;;;;;;;26.80;44.40;25.30;101082.00;;;;5105779;28;19917;-68
2022/09/06 12:21:50;;;;;;;;;;;26.90;44.50;25.30;101079.00;;;;5100878;27;20018;-70
2022/09/06 12:24:37;;;;;;;;;;;26.90;44.40;25.30;101082.00;;;;5100422;28;20325;-67
2022/09/06 12:27:24;;;;;;;;;;;26.90;44.50;25.40;101082.00;;;;5103157;28;19962;-67
2022/09/06 12:30:11;;;;;;;;;;;27.00;44.50;25.30;101077.00;;;;5087282;28;21751;-67
2022/09/06 12:32:57;;;;;;;;;;;26.90;44.40;25.40;101082.00;;;;5089303;28;19951;-67
2022/09/06 12:35:43;;;;;;;;;;;26.90;44.40;25.40;101079.00;;;;5082623;28;19965;-67
2022/09/06 12:38:29;;;;;;;;;;;27.00;44.50;25.40;101081.00;;;;5077829;28;19920;-67
2022/09/06 12:41:15;;;;;;;;;;;26.90;44.40;25.40;101073.00;;;;5092119;28;20010;-67
2022/09/06 12:44:03;;;;;;;;;;;26.90;44.40;25.40;101075.00;;;;5086898;27;19916;-67
2022/09/06 12:46:49;;;;;;;;;;;26.90;44.40;25.40;101072.00;;;;5088269;28;19920;-67
2022/09/06 12:49:35;;;;;;;;;;;27.00;44.40;25.40;101074.00;;;;5075909;28;20376;-67
2022/09/06 12:52:21;;;;;;;;;;;26.90;44.30;25.40;101073.00;;;;5104788;27;19922;-67
2022/09/06 12:55:19;;;;;;;;;;;27.00;44.40;25.40;101062.00;;;;5096684;28;19923;-67
2022/09/06 12:58:07;;;;;;;;;;;26.90;44.30;25.40;101075.00;;;;5108009;27;20364;-67
2022/09/06 13:00:53;;;;;;;;;;;27.00;44.30;25.40;101073.00;;;;5101829;28;20293;-67
2022/09/06 13:03:44;;;;;;;;;;;27.00;44.30;25.40;101070.00;;;;5105139;28;20544;-67
2022/09/06 13:06:33;;;;;;;;;;;26.90;44.20;25.40;101066.00;;;;5105191;28;19911;-67
2022/09/06 13:09:19;;;;;;;;;;;27.00;44.30;25.40;101065.00;;;;5108563;27;20424;-67
2022/09/06 13:12:07;;;;;;;;;;;26.90;44.20;25.40;101065.00;;;;5078098;28;19916;-67
2022/09/06 13:14:53;;;;;;;;;;;27.00;44.30;25.40;101057.00;;;;5103985;28;19965;-67
2022/09/06 13:17:39;;;;;;;;;;;27.00;44.30;25.40;101051.00;;;;5088545;28;19966;-67
2022/09/06 13:20:27;;;;;;;;;;;27.10;44.30;25.40;101056.00;;;;5103251;28;19916;-67
2022/09/06 13:23:19;;;;;;;;;;;27.00;44.30;25.40;101053.00;;;;5104119;27;19920;-67
2022/09/06 13:26:05;;;;;;;;;;;27.00;44.20;25.40;101057.00;;;;5089399;28;19916;-67
2022/09/06 13:28:51;;;;;;;;;;;27.00;44.20;25.40;101042.00;;;;5102391;27;19935;-67
2022/09/06 13:31:37;;;;;;;;;;;27.00;44.30;25.40;101043.00;;;;5102170;28;20304;-67
2022/09/06 13:34:30;;;;;;;;;;;27.00;44.30;25.40;101036.00;;;;5089239;28;19938;-67
2022/09/06 13:37:16;;;;;;;;;;;27.00;44.20;25.40;101030.00;;;;5114494;27;20054;-67